Time,TemperatureF,DewpointF,PressureIn,WindDirection,WindDirectionDegrees,WindSpeedMPH,WindSpeedGustMPH,Humidity,HourlyPrecipIn,Conditions,Clouds,dailyrainin,SolarRadiationWatts/m^2,SoftwareType,DateUTC
2013-04-03 00:12:00,40.0,29.0,-100.00,NE,43,0.0,6.0,65,0.00,,,-99.99,0.000000,,2013-04-03 06:12:00,
2013-04-03 00:22:00,40.0,29.0,-100.00,NE,43,0.0,6.0,65,0.00,,,-99.99,0.000000,,2013-04-03 06:22:00,
2013-04-03 00:32:00,40.0,29.0,-100.00,NE,43,0.0,6.0,65,0.00,,,-99.99,0.000000,,2013-04-03 06:32:00,
2013-04-03 00:42:00,40.0,29.0,-100.00,NE,43,0.0,6.0,65,0.00,,,-99.99,0.000000,,2013-04-03 06:42:00,
2013-04-03 00:51:00,41.0,31.0,-100.00,WNW,286,6.0,8.0,67,0.00,,,0.00,0.000000,,2013-04-03 06:51:00,
2013-04-03 01:12:00,41.0,31.0,-100.00,WNW,286,6.0,8.0,67,0.00,,,0.00,0.000000,,2013-04-03 07:12:00,
2013-04-03 01:23:00,41.0,31.0,-100.00,WNW,286,6.0,8.0,67,0.00,,,0.00,0.000000,,2013-04-03 07:23:00,
2013-04-03 01:32:00,41.0,31.0,-100.00,WNW,286,6.0,8.0,67,0.00,,,0.00,0.000000,,2013-04-03 07:32:00,
2013-04-03 01:42:00,41.0,31.0,-100.00,WNW,286,6.0,8.0,67,0.00,,,0.00,0.000000,,2013-04-03 07:42:00,
2013-04-03 01:51:00,39.0,30.0,-100.00,NW,307,4.0,7.0,70,0.00,,,0.00,0.000000,,2013-04-03 07:51:00,
2013-04-03 02:12:00,39.0,30.0,-100.00,NW,307,4.0,7.0,70,0.00,,,0.00,0.000000,,2013-04-03 08:12:00,
2013-04-03 02:22:00,39.0,30.0,-100.00,NW,307,4.0,7.0,70,0.00,,,0.00,0.000000,,2013-04-03 08:22:00,
2013-04-03 02:32:00,39.0,30.0,-100.00,NW,307,4.0,7.0,70,0.00,,,0.00,0.000000,,2013-04-03 08:32:00,
2013-04-03 02:42:00,39.0,30.0,-100.00,NW,307,4.0,7.0,70,0.00,,,0.00,0.000000,,2013-04-03 08:42:00,
2013-04-03 02:51:00,40.0,31.0,-100.00,West,281,4.0,10.0,69,0.00,,,-99.99,0.000000,,2013-04-03 08:51:00,
2013-04-03 03:22:00,40.0,31.0,-100.00,West,281,4.0,10.0,69,0.00,,,-99.99,0.000000,,2013-04-03 09:22:00,
2013-04-03 03:33:00,40.0,31.0,-100.00,West,281,4.0,10.0,69,0.00,,,-99.99,0.000000,,2013-04-03 09:33:00,
2013-04-03 03:43:00,40.0,31.0,-100.00,West,281,4.0,10.0,69,0.00,,,-99.99,0.000000,,2013-04-03 09:43:00,
2013-04-03 03:51:00,39.0,31.0,-100.00,East,99,0.0,5.0,72,0.00,,,0.00,0.000000,,2013-04-03 09:51:00,
2013-04-03 04:12:00,39.0,31.0,-100.00,East,99,0.0,5.0,72,0.00,,,0.00,0.000000,,2013-04-03 10:12:00,
2013-04-03 04:22:00,39.0,31.0,-100.00,East,99,0.0,5.0,72,0.00,,,0.00,0.000000,,2013-04-03 10:22:00,
2013-04-03 04:33:00,39.0,31.0,-100.00,East,99,0.0,5.0,72,0.00,,,0.00,0.000000,,2013-04-03 10:33:00,
2013-04-03 04:42:00,39.0,31.0,-100.00,East,99,0.0,5.0,72,0.00,,,0.00,0.000000,,2013-04-03 10:42:00,
2013-04-03 04:51:00,39.0,31.0,-100.00,WNW,301,2.0,3.0,72,0.00,,,0.00,0.000000,,2013-04-03 10:51:00,
2013-04-03 05:12:00,39.0,31.0,-100.00,WNW,301,2.0,3.0,72,0.00,,,0.00,0.000000,,2013-04-03 11:12:00,
2013-04-03 05:22:00,39.0,31.0,-100.00,WNW,301,2.0,3.0,72,0.00,,,0.00,0.000000,,2013-04-03 11:22:00,
2013-04-03 05:32:00,39.0,31.0,-100.00,WNW,301,2.0,3.0,72,0.00,,,0.00,0.000000,,2013-04-03 11:32:00,
2013-04-03 05:42:00,39.0,31.0,-100.00,WNW,301,2.0,3.0,72,0.00,,,0.00,0.000000,,2013-04-03 11:42:00,
2013-04-03 05:51:00,38.0,30.0,-100.00,ESE,110,0.0,3.0,74,0.00,,,0.00,0.000000,,2013-04-03 11:51:00,
2013-04-03 06:12:00,38.0,30.0,-100.00,ESE,110,0.0,3.0,74,0.00,,,0.00,0.000000,,2013-04-03 12:12:00,
2013-04-03 06:22:00,38.0,30.0,-100.00,ESE,110,0.0,3.0,74,0.00,,,0.00,0.000000,,2013-04-03 12:22:00,
2013-04-03 06:32:00,38.0,30.0,-100.00,ESE,110,0.0,3.0,74,0.00,,,0.00,0.000000,,2013-04-03 12:32:00,
2013-04-03 06:42:00,38.0,30.0,-100.00,ESE,110,0.0,3.0,74,0.00,,,0.00,0.000000,,2013-04-03 12:42:00,
2013-04-03 06:51:00,37.0,30.0,-100.00,SE,133,2.0,3.0,76,0.00,,,0.00,0.000000,,2013-04-03 12:51:00,
2013-04-03 07:22:00,37.0,30.0,-100.00,SE,133,2.0,3.0,76,0.00,,,0.00,0.000000,,2013-04-03 13:22:00,
2013-04-03 07:32:00,37.0,30.0,-100.00,SE,133,2.0,3.0,76,0.00,,,0.00,0.000000,,2013-04-03 13:32:00,
2013-04-03 07:42:00,37.0,30.0,-100.00,SE,133,2.0,3.0,76,0.00,,,0.00,0.000000,,2013-04-03 13:42:00,
2013-04-03 07:51:00,40.0,31.0,-100.00,North,351,2.0,5.0,70,0.00,,,0.00,69.000000,,2013-04-03 13:51:00,
2013-04-03 08:12:00,40.0,31.0,-100.00,North,351,2.0,5.0,70,0.00,,,0.00,69.000000,,2013-04-03 14:12:00,
2013-04-03 08:22:00,40.0,31.0,-100.00,North,351,2.0,5.0,70,0.00,,,0.00,69.000000,,2013-04-03 14:22:00,
2013-04-03 08:32:00,40.0,31.0,-100.00,North,351,2.0,5.0,70,0.00,,,0.00,69.000000,,2013-04-03 14:32:00,
2013-04-03 08:42:00,40.0,31.0,-100.00,North,351,2.0,5.0,70,0.00,,,0.00,69.000000,,2013-04-03 14:42:00,
2013-04-03 08:51:00,44.0,32.0,-100.00,NNE,24,2.0,5.0,63,0.00,,,0.00,69.000000,,2013-04-03 14:51:00,
2013-04-03 09:23:00,44.0,32.0,-100.00,NNE,24,2.0,5.0,63,0.00,,,0.00,69.000000,,2013-04-03 15:23:00,
2013-04-03 09:33:00,44.0,32.0,-100.00,NNE,24,2.0,5.0,63,0.00,,,0.00,69.000000,,2013-04-03 15:33:00,
2013-04-03 09:42:00,44.0,32.0,-100.00,NNE,24,2.0,5.0,63,0.00,,,0.00,69.000000,,2013-04-03 15:42:00,
2013-04-03 09:51:00,46.0,32.0,-100.00,NNW,346,3.0,7.0,58,0.00,,,-99.99,440.000000,,2013-04-03 15:51:00,
2013-04-03 10:23:00,46.0,32.0,-100.00,NNW,346,3.0,7.0,58,0.00,,,-99.99,440.000000,,2013-04-03 16:23:00,
2013-04-03 10:32:00,46.0,32.0,-100.00,NNW,346,3.0,7.0,58,0.00,,,-99.99,440.000000,,2013-04-03 16:32:00,
2013-04-03 10:43:00,46.0,32.0,-100.00,NNW,346,3.0,7.0,58,0.00,,,-99.99,440.000000,,2013-04-03 16:43:00,
2013-04-03 10:51:00,49.0,29.0,-100.00,NNW,343,5.0,10.0,46,0.00,,,0.00,752.000000,,2013-04-03 16:51:00,
2013-04-03 11:22:00,49.0,29.0,-100.00,NNW,343,5.0,10.0,46,0.00,,,0.00,752.000000,,2013-04-03 17:22:00,
2013-04-03 11:32:00,49.0,29.0,-100.00,NNW,343,5.0,10.0,46,0.00,,,0.00,752.000000,,2013-04-03 17:32:00,
2013-04-03 11:45:00,49.0,29.0,-100.00,NNW,343,5.0,10.0,46,0.00,,,0.00,752.000000,,2013-04-03 17:45:00,
2013-04-03 11:51:00,52.0,29.0,-100.00,NNW,327,4.0,11.0,41,0.00,,,0.00,821.000000,,2013-04-03 17:51:00,
2013-04-03 12:12:00,52.0,29.0,-100.00,NNW,327,4.0,11.0,41,0.00,,,0.00,821.000000,,2013-04-03 18:12:00,
2013-04-03 12:22:00,52.0,29.0,-100.00,NNW,327,4.0,11.0,41,0.00,,,0.00,821.000000,,2013-04-03 18:22:00,
2013-04-03 12:33:00,52.0,29.0,-100.00,NNW,327,4.0,11.0,41,0.00,,,0.00,821.000000,,2013-04-03 18:33:00,
2013-04-03 12:42:00,52.0,29.0,-100.00,NNW,327,4.0,11.0,41,0.00,,,0.00,821.000000,,2013-04-03 18:42:00,
2013-04-03 12:51:00,56.0,26.0,-100.00,North,350,4.0,8.0,31,0.00,,,0.00,851.000000,,2013-04-03 18:51:00,
2013-04-03 13:12:00,56.0,26.0,-100.00,North,350,4.0,8.0,31,0.00,,,0.00,851.000000,,2013-04-03 19:12:00,
2013-04-03 13:22:00,56.0,26.0,-100.00,North,350,4.0,8.0,31,0.00,,,0.00,851.000000,,2013-04-03 19:22:00,
2013-04-03 13:32:00,56.0,26.0,-100.00,North,350,4.0,8.0,31,0.00,,,0.00,851.000000,,2013-04-03 19:32:00,
2013-04-03 13:42:00,56.0,26.0,-100.00,North,350,4.0,8.0,31,0.00,,,0.00,851.000000,,2013-04-03 19:42:00,
2013-04-03 13:51:00,59.0,24.0,-100.00,SSW,200,4.0,13.0,26,0.00,,,0.00,1055.000000,,2013-04-03 19:51:00,
2013-04-03 14:12:00,59.0,24.0,-100.00,SSW,200,4.0,13.0,26,0.00,,,0.00,1055.000000,,2013-04-03 20:12:00,
2013-04-03 14:22:00,59.0,24.0,-100.00,SSW,200,4.0,13.0,26,0.00,,,0.00,1055.000000,,2013-04-03 20:22:00,
2013-04-03 14:32:00,59.0,24.0,-100.00,SSW,200,4.0,13.0,26,0.00,,,0.00,1055.000000,,2013-04-03 20:32:00,
2013-04-03 14:42:00,59.0,24.0,-100.00,SSW,200,4.0,13.0,26,0.00,,,0.00,1055.000000,,2013-04-03 20:42:00,
2013-04-03 14:51:00,62.0,23.0,-100.00,West,265,2.0,14.0,22,0.00,,,0.00,1037.000000,,2013-04-03 20:51:00,
2013-04-03 15:12:00,62.0,23.0,-100.00,West,265,2.0,14.0,22,0.00,,,0.00,1037.000000,,2013-04-03 21:12:00,
2013-04-03 15:22:00,62.0,23.0,-100.00,West,265,2.0,14.0,22,0.00,,,0.00,1037.000000,,2013-04-03 21:22:00,
2013-04-03 15:32:00,62.0,23.0,-100.00,West,265,2.0,14.0,22,0.00,,,0.00,1037.000000,,2013-04-03 21:32:00,
2013-04-03 15:42:00,62.0,23.0,-100.00,West,265,2.0,14.0,22,0.00,,,0.00,1037.000000,,2013-04-03 21:42:00,
2013-04-03 15:51:00,61.0,17.0,-100.00,North,8,7.0,17.0,18,0.00,,,0.00,992.000000,,2013-04-03 21:51:00,
2013-04-03 16:22:00,61.0,17.0,-100.00,North,8,7.0,17.0,18,0.00,,,0.00,992.000000,,2013-04-03 22:22:00,
2013-04-03 16:32:00,61.0,17.0,-100.00,North,8,7.0,17.0,18,0.00,,,0.00,992.000000,,2013-04-03 22:32:00,
2013-04-03 16:42:00,61.0,17.0,-100.00,North,8,7.0,17.0,18,0.00,,,0.00,992.000000,,2013-04-03 22:42:00,
2013-04-03 17:51:00,61.0,17.0,-100.00,North,360,5.0,12.0,18,0.00,,,0.00,535.000000,,2013-04-03 23:51:00,
2013-04-03 18:22:00,61.0,17.0,-100.00,North,360,5.0,12.0,18,0.00,,,0.00,535.000000,,2013-04-04 00:22:00,
2013-04-03 18:32:00,61.0,17.0,-100.00,North,360,5.0,12.0,18,0.00,,,0.00,535.000000,,2013-04-04 00:32:00,
2013-04-03 18:43:00,61.0,17.0,-100.00,North,360,5.0,12.0,18,0.00,,,0.00,535.000000,,2013-04-04 00:43:00,
2013-04-03 18:51:00,60.0,21.0,-100.00,North,352,2.0,11.0,22,0.00,,,0.00,291.000000,,2013-04-04 00:51:00,
2013-04-03 19:11:00,60.0,21.0,-100.00,North,352,2.0,11.0,22,0.00,,,0.00,291.000000,,2013-04-04 01:11:00,
2013-04-03 19:22:00,60.0,21.0,-100.00,North,352,2.0,11.0,22,0.00,,,0.00,291.000000,,2013-04-04 01:22:00,
2013-04-03 19:32:00,60.0,21.0,-100.00,North,352,2.0,11.0,22,0.00,,,0.00,291.000000,,2013-04-04 01:32:00,
2013-04-03 19:43:00,60.0,21.0,-100.00,North,352,2.0,11.0,22,0.00,,,0.00,291.000000,,2013-04-04 01:43:00,
2013-04-03 19:51:00,55.0,15.0,-100.00,NW,305,7.0,10.0,20,0.00,,,0.00,60.000000,,2013-04-04 01:51:00,
2013-04-03 20:12:00,55.0,15.0,-100.00,NW,305,7.0,10.0,20,0.00,,,0.00,60.000000,,2013-04-04 02:12:00,
2013-04-03 20:22:00,55.0,15.0,-100.00,NW,305,7.0,10.0,20,0.00,,,0.00,60.000000,,2013-04-04 02:22:00,
2013-04-03 20:32:00,55.0,15.0,-100.00,NW,305,7.0,10.0,20,0.00,,,0.00,60.000000,,2013-04-04 02:32:00,
2013-04-03 20:42:00,55.0,15.0,-100.00,NW,305,7.0,10.0,20,0.00,,,0.00,60.000000,,2013-04-04 02:42:00,
2013-04-03 20:51:00,51.0,16.0,-100.00,NNW,340,3.0,12.0,24,0.00,,,0.00,0.000000,,2013-04-04 02:51:00,
2013-04-03 21:12:00,51.0,16.0,-100.00,NNW,340,3.0,12.0,24,0.00,,,0.00,0.000000,,2013-04-04 03:12:00,
2013-04-03 21:22:00,51.0,16.0,-100.00,NNW,340,3.0,12.0,24,0.00,,,0.00,0.000000,,2013-04-04 03:22:00,
2013-04-03 21:33:00,51.0,16.0,-100.00,NNW,340,3.0,12.0,24,0.00,,,0.00,0.000000,,2013-04-04 03:33:00,
2013-04-03 21:43:00,51.0,16.0,-100.00,NNW,340,3.0,12.0,24,0.00,,,0.00,0.000000,,2013-04-04 03:43:00,
2013-04-03 21:51:00,51.0,-99.9,-100.00,NW,316,4.0,-999.0,-999,0.00,,,0.00,,,2013-04-04 03:51:00,
2013-04-03 22:23:00,51.0,-99.9,-100.00,NW,316,4.0,-999.0,-999,0.00,,,0.00,,,2013-04-04 04:23:00,
2013-04-03 22:34:00,51.0,-99.9,-100.00,NW,316,4.0,-999.0,-999,0.00,,,0.00,,,2013-04-04 04:34:00,
2013-04-03 22:43:00,51.0,-99.9,-100.00,NW,316,4.0,-999.0,-999,0.00,,,0.00,,,2013-04-04 04:43:00,
2013-04-03 22:51:00,48.0,17.0,-100.00,East,81,1.0,5.0,29,0.00,,,0.00,0.000000,,2013-04-04 04:51:00,
2013-04-03 23:23:00,48.0,17.0,-100.00,East,81,1.0,5.0,29,0.00,,,0.00,0.000000,,2013-04-04 05:23:00,
2013-04-03 23:32:00,48.0,17.0,-100.00,East,81,1.0,5.0,29,0.00,,,0.00,0.000000,,2013-04-04 05:32:00,
2013-04-03 23:42:00,48.0,17.0,-100.00,East,81,1.0,5.0,29,0.00,,,0.00,0.000000,,2013-04-04 05:42:00,
2013-04-03 23:51:00,44.0,19.0,-100.00,West,272,3.0,7.0,36,0.00,,,0.00,0.000000,,2013-04-04 05:51:00,